Time;durP1;ratioP1;P1;durP2;ratioP2;P2;SDS_P1;SDS_P2;PMS_P1;PMS_P2;Temp;Humidity;BMP_temperature;BMP_pressure;BME280_temperature;BME280_humidity;BME280_pressure;Samples;Min_cycle;Max_cycle;Signal;HPM_P1;HPM_P2
2022/12/02 00:00:59;;;;;;;;;10.75;9.75;;;;;;;;5042053;28;51414;-46
2022/12/02 00:03:43;;;;;;;;;14.50;13.25;;;;;;;;5042023;28;51124;-46
2022/12/02 00:06:29;;;;;;;;;15.75;11.75;;;;;;;;5041901;28;51035;-46
2022/12/02 00:09:24;;;;;;;;;16.25;10.75;;;;;;;;5041693;28;51066;-46
2022/12/02 00:12:25;;;;;;;;;17.75;13.50;;;;;;;;5040948;28;51157;-47
2022/12/02 00:15:32;;;;;;;;;13.00;13.00;;;;;;;;5041536;28;51171;-48
2022/12/02 00:18:16;;;;;;;;;13.50;13.00;;;;;;;;5039452;28;51015;-49
2022/12/02 00:21:00;;;;;;;;;16.25;11.25;;;;;;;;5041480;28;51137;-47
2022/12/02 00:23:45;;;;;;;;;14.75;13.00;;;;;;;;5041749;28;51055;-48
2022/12/02 00:26:29;;;;;;;;;14.25;14.25;;;;;;;;5041604;28;51581;-46
2022/12/02 00:29:14;;;;;;;;;13.25;12.00;;;;;;;;5041026;28;51089;-47
2022/12/02 00:31:58;;;;;;;;;16.75;13.50;;;;;;;;5041568;28;51154;-47
2022/12/02 00:34:42;;;;;;;;;17.00;13.25;;;;;;;;5041629;28;51117;-46
2022/12/02 00:37:27;;;;;;;;;15.00;13.25;;;;;;;;5041031;28;51110;-46
2022/12/02 00:40:11;;;;;;;;;15.00;11.50;;;;;;;;5041239;28;50993;-46
2022/12/02 00:46:30;;;;;;;;;13.50;8.75;;;;;;;;5041570;28;51169;-47
2022/12/02 00:49:07;;;;;;;;;12.50;11.50;;;;;;;;5041052;28;51159;-46
2022/12/02 00:51:51;;;;;;;;;15.75;11.25;;;;;;;;5041351;28;51161;-46
2022/12/02 00:54:36;;;;;;;;;13.25;12.75;;;;;;;;5040878;28;51100;-49
2022/12/02 00:57:20;;;;;;;;;13.75;9.75;;;;;;;;5041133;28;51042;-45
2022/12/02 01:00:05;;;;;;;;;11.00;10.75;;;;;;;;5040924;28;51181;-46
2022/12/02 01:02:49;;;;;;;;;14.25;9.50;;;;;;;;5041114;28;51117;-45
2022/12/02 01:05:34;;;;;;;;;16.00;13.25;;;;;;;;5039534;28;51007;-47
2022/12/02 01:08:21;;;;;;;;;13.00;12.75;;;;;;;;5041030;28;51125;-46
2022/12/02 01:11:06;;;;;;;;;16.75;13.00;;;;;;;;5040558;28;51135;-47
2022/12/02 01:13:50;;;;;;;;;13.75;11.00;;;;;;;;5040901;28;51085;-46
2022/12/02 01:16:35;;;;;;;;;16.25;13.25;;;;;;;;5040590;28;51110;-45
2022/12/02 01:19:19;;;;;;;;;12.25;10.50;;;;;;;;5040386;28;51219;-46
2022/12/02 01:22:03;;;;;;;;;12.50;10.75;;;;;;;;5040674;28;51192;-47
2022/12/02 01:24:48;;;;;;;;;18.50;13.00;;;;;;;;5040568;28;51030;-46
2022/12/02 01:27:32;;;;;;;;;15.25;12.25;;;;;;;;5040340;28;51140;-46
2022/12/02 01:30:16;;;;;;;;;12.25;12.25;;;;;;;;5040142;28;51119;-46
2022/12/02 01:33:01;;;;;;;;;15.50;11.00;;;;;;;;5040743;28;51337;-46
2022/12/02 01:35:45;;;;;;;;;14.75;11.75;;;;;;;;5039391;28;51189;-48
2022/12/02 01:38:30;;;;;;;;;15.50;10.75;;;;;;;;5039855;28;51133;-46
2022/12/02 01:41:14;;;;;;;;;18.00;14.00;;;;;;;;5040233;28;51513;-46
2022/12/02 01:43:59;;;;;;;;;11.25;9.50;;;;;;;;5040387;28;51045;-45
2022/12/02 01:46:43;;;;;;;;;11.75;11.00;;;;;;;;5053073;28;51014;-48
2022/12/02 01:49:27;;;;;;;;;17.50;12.00;;;;;;;;5039935;28;51178;-45
2022/12/02 01:52:12;;;;;;;;;15.25;12.75;;;;;;;;5040160;28;51118;-46
2022/12/02 01:54:56;;;;;;;;;14.00;14.00;;;;;;;;5039917;28;51165;-45
2022/12/02 01:57:41;;;;;;;;;16.25;13.75;;;;;;;;5040029;28;51173;-49
2022/12/02 02:00:26;;;;;;;;;13.25;10.00;;;;;;;;5039857;28;51123;-47
2022/12/02 02:03:10;;;;;;;;;17.00;12.75;;;;;;;;5039832;28;51012;-50
2022/12/02 02:05:55;;;;;;;;;16.75;12.75;;;;;;;;5039761;28;51138;-45
2022/12/02 02:08:39;;;;;;;;;14.25;12.25;;;;;;;;5039520;28;51027;-46
2022/12/02 02:11:24;;;;;;;;;15.75;12.25;;;;;;;;5039530;28;51472;-47
2022/12/02 02:14:09;;;;;;;;;16.25;14.00;;;;;;;;5039639;28;51024;-48
2022/12/02 02:16:54;;;;;;;;;17.25;13.00;;;;;;;;5039622;28;51491;-48
2022/12/02 02:19:38;;;;;;;;;18.50;15.00;;;;;;;;5039096;28;51067;-47
2022/12/02 02:22:25;;;;;;;;;15.75;14.00;;;;;;;;5039668;28;51177;-46
2022/12/02 02:25:11;;;;;;;;;18.00;13.00;;;;;;;;5039486;28;51103;-46
2022/12/02 02:27:59;;;;;;;;;21.00;14.50;;;;;;;;5039339;28;51113;-47
2022/12/02 02:30:44;;;;;;;;;17.50;14.75;;;;;;;;5039543;28;51548;-47
2022/12/02 02:33:30;;;;;;;;;15.75;13.75;;;;;;;;5039198;28;51164;-45
2022/12/02 02:36:14;;;;;;;;;17.25;14.25;;;;;;;;5039308;28;51334;-46
2022/12/02 02:38:58;;;;;;;;;15.50;13.50;;;;;;;;5039091;28;51137;-46
2022/12/02 02:41:43;;;;;;;;;15.75;11.50;;;;;;;;5039096;28;51388;-45
2022/12/02 02:44:28;;;;;;;;;21.50;12.75;;;;;;;;5039185;28;51039;-45
2022/12/02 02:47:13;;;;;;;;;12.50;12.50;;;;;;;;5039519;28;51220;-46
2022/12/02 02:49:57;;;;;;;;;19.25;14.50;;;;;;;;5039003;28;51380;-46
2022/12/02 02:52:41;;;;;;;;;12.00;12.00;;;;;;;;5039366;28;51085;-46
2022/12/02 02:55:26;;;;;;;;;15.25;12.50;;;;;;;;5039047;28;51075;-46
2022/12/02 02:58:14;;;;;;;;;16.75;13.50;;;;;;;;5039305;28;51071;-47
2022/12/02 03:01:01;;;;;;;;;18.00;15.25;;;;;;;;5038951;28;51559;-46
2022/12/02 03:04:07;;;;;;;;;19.25;15.00;;;;;;;;5039016;28;51235;-46
2022/12/02 03:06:51;;;;;;;;;16.00;14.00;;;;;;;;5038980;28;51354;-45
2022/12/02 03:09:36;;;;;;;;;15.25;14.00;;;;;;;;5038778;28;51186;-46
2022/12/02 03:12:20;;;;;;;;;18.00;13.50;;;;;;;;5039442;28;51148;-46
2022/12/02 03:15:06;;;;;;;;;17.75;17.25;;;;;;;;5038711;28;51605;-45
2022/12/02 03:17:51;;;;;;;;;24.00;19.75;;;;;;;;5038943;28;51146;-47
2022/12/02 03:20:36;;;;;;;;;35.00;26.50;;;;;;;;5039004;28;51375;-48
2022/12/02 03:23:20;;;;;;;;;35.50;28.75;;;;;;;;5039108;28;51175;-46
2022/12/02 03:26:05;;;;;;;;;46.00;35.50;;;;;;;;5038505;28;50951;-48
2022/12/02 03:28:49;;;;;;;;;40.25;33.00;;;;;;;;5038708;28;51326;-46
2022/12/02 03:31:34;;;;;;;;;40.25;31.00;;;;;;;;5039161;28;51588;-47
2022/12/02 03:34:18;;;;;;;;;36.50;30.25;;;;;;;;5038474;28;51124;-47
2022/12/02 03:37:03;;;;;;;;;28.50;25.75;;;;;;;;5038615;28;51297;-47
2022/12/02 03:39:47;;;;;;;;;25.75;23.50;;;;;;;;5038469;28;51525;-45
2022/12/02 03:42:32;;;;;;;;;30.25;23.75;;;;;;;;5038922;28;51286;-46
2022/12/02 03:45:16;;;;;;;;;29.50;25.50;;;;;;;;5038513;28;51601;-45
2022/12/02 03:48:02;;;;;;;;;26.25;23.75;;;;;;;;5042298;28;51149;-48
2022/12/02 03:50:46;;;;;;;;;32.50;25.50;;;;;;;;5042152;28;51045;-46
2022/12/02 03:53:30;;;;;;;;;29.75;26.50;;;;;;;;5041467;28;51093;-46
2022/12/02 03:56:15;;;;;;;;;22.75;20.50;;;;;;;;5042260;28;51588;-47
2022/12/02 03:58:59;;;;;;;;;34.25;25.50;;;;;;;;5042001;28;51087;-46
2022/12/02 04:01:43;;;;;;;;;24.75;23.25;;;;;;;;5042444;28;51010;-45
2022/12/02 04:04:28;;;;;;;;;27.00;25.75;;;;;;;;5041918;28;51620;-45
2022/12/02 04:07:12;;;;;;;;;26.25;22.50;;;;;;;;5041777;28;51010;-47
2022/12/02 04:09:57;;;;;;;;;31.00;27.25;;;;;;;;5041876;28;51093;-45
2022/12/02 04:12:41;;;;;;;;;26.50;25.25;;;;;;;;5042177;28;51236;-46
2022/12/02 04:15:26;;;;;;;;;27.25;23.75;;;;;;;;5041521;28;51472;-46
2022/12/02 04:18:10;;;;;;;;;26.25;23.25;;;;;;;;5041542;28;51160;-48
2022/12/02 04:20:54;;;;;;;;;26.50;24.00;;;;;;;;5041765;28;51085;-45
2022/12/02 04:23:39;;;;;;;;;38.75;28.25;;;;;;;;5054812;28;51090;-45
2022/12/02 04:26:23;;;;;;;;;35.00;29.00;;;;;;;;5041794;28;51049;-47
2022/12/02 04:29:08;;;;;;;;;30.50;24.00;;;;;;;;5041368;28;51355;-47
2022/12/02 04:31:52;;;;;;;;;30.00;24.75;;;;;;;;5026357;28;51156;-46
2022/12/02 04:34:37;;;;;;;;;27.50;24.25;;;;;;;;5041624;28;51196;-47
2022/12/02 04:37:21;;;;;;;;;29.00;25.50;;;;;;;;5041446;28;51101;-46
2022/12/02 04:40:06;;;;;;;;;31.75;28.25;;;;;;;;5041222;28;51156;-47
2022/12/02 04:42:50;;;;;;;;;33.25;28.25;;;;;;;;5041370;28;51089;-46
2022/12/02 04:45:35;;;;;;;;;34.50;27.25;;;;;;;;5041225;28;51178;-46
2022/12/02 04:48:19;;;;;;;;;41.50;31.25;;;;;;;;5041040;28;51100;-48
2022/12/02 04:51:03;;;;;;;;;34.25;28.50;;;;;;;;5041419;28;51184;-48
2022/12/02 04:53:48;;;;;;;;;29.75;25.75;;;;;;;;5040992;28;51019;-47
2022/12/02 04:56:32;;;;;;;;;31.75;26.25;;;;;;;;5040585;28;51194;-48
2022/12/02 04:59:16;;;;;;;;;28.25;27.00;;;;;;;;5040964;28;51272;-45
2022/12/02 05:02:01;;;;;;;;;24.25;22.00;;;;;;;;5041299;28;51183;-45
2022/12/02 05:04:45;;;;;;;;;37.75;31.75;;;;;;;;5039802;28;51334;-48
2022/12/02 05:07:30;;;;;;;;;31.50;28.50;;;;;;;;5040573;28;51205;-45
2022/12/02 05:10:14;;;;;;;;;45.00;33.75;;;;;;;;5040863;28;51648;-47
2022/12/02 05:12:58;;;;;;;;;42.75;29.50;;;;;;;;5040663;28;51122;-45
2022/12/02 05:15:43;;;;;;;;;41.75;33.75;;;;;;;;5040866;28;51159;-46
2022/12/02 05:18:27;;;;;;;;;38.00;31.00;;;;;;;;5040302;28;51224;-45
2022/12/02 05:21:11;;;;;;;;;45.25;32.00;;;;;;;;5040429;28;51158;-46
2022/12/02 05:23:56;;;;;;;;;41.75;32.25;;;;;;;;5040576;28;51102;-47
2022/12/02 05:26:40;;;;;;;;;40.25;31.50;;;;;;;;5040655;28;51194;-47
2022/12/02 05:29:25;;;;;;;;;43.25;35.00;;;;;;;;5040095;28;51439;-46
2022/12/02 05:32:09;;;;;;;;;45.75;35.50;;;;;;;;5040410;28;51195;-46
2022/12/02 05:34:54;;;;;;;;;46.00;37.50;;;;;;;;5040537;28;51575;-46
2022/12/02 05:37:38;;;;;;;;;44.25;34.75;;;;;;;;5040055;28;51152;-46
2022/12/02 05:40:22;;;;;;;;;49.25;36.50;;;;;;;;5040421;28;51144;-45
2022/12/02 05:43:15;;;;;;;;;48.25;39.00;;;;;;;;5039978;28;51334;-47
2022/12/02 05:46:00;;;;;;;;;49.50;39.25;;;;;;;;5040128;28;51110;-47
2022/12/02 05:48:45;;;;;;;;;52.00;38.75;;;;;;;;5039776;28;51191;-47
2022/12/02 05:51:30;;;;;;;;;49.50;39.75;;;;;;;;5040319;28;51194;-45
2022/12/02 05:54:19;;;;;;;;;58.25;42.00;;;;;;;;5039786;28;51540;-46
2022/12/02 05:57:06;;;;;;;;;56.50;43.50;;;;;;;;5040047;28;51172;-47
2022/12/02 05:59:54;;;;;;;;;55.25;41.50;;;;;;;;5039715;28;51661;-46
2022/12/02 06:02:40;;;;;;;;;50.25;39.75;;;;;;;;5039387;28;51057;-48
2022/12/02 06:05:26;;;;;;;;;48.25;40.00;;;;;;;;5040001;28;51130;-46
2022/12/02 06:08:22;;;;;;;;;52.75;43.00;;;;;;;;5039356;28;51464;-46
2022/12/02 06:11:20;;;;;;;;;56.25;45.00;;;;;;;;5039580;28;51007;-46
2022/12/02 06:14:16;;;;;;;;;61.50;46.25;;;;;;;;5039583;28;51396;-45
2022/12/02 06:17:12;;;;;;;;;58.50;44.75;;;;;;;;5039708;28;51177;-47
2022/12/02 06:19:57;;;;;;;;;57.00;44.50;;;;;;;;5039311;28;51489;-45
2022/12/02 06:22:41;;;;;;;;;60.25;46.25;;;;;;;;5039382;28;51126;-45
2022/12/02 06:25:27;;;;;;;;;60.75;46.00;;;;;;;;5039570;28;51032;-47
2022/12/02 06:28:11;;;;;;;;;58.50;46.50;;;;;;;;5039416;28;51082;-46
2022/12/02 06:30:57;;;;;;;;;56.75;44.00;;;;;;;;5039590;28;51047;-47
2022/12/02 06:33:42;;;;;;;;;59.50;46.25;;;;;;;;5039336;28;51458;-46
2022/12/02 06:36:29;;;;;;;;;61.50;48.00;;;;;;;;5039342;28;51702;-50
2022/12/02 06:39:17;;;;;;;;;54.00;42.25;;;;;;;;5039001;28;51089;-48
2022/12/02 06:42:05;;;;;;;;;55.50;44.75;;;;;;;;5039390;28;51046;-47
2022/12/02 06:45:07;;;;;;;;;60.00;46.00;;;;;;;;5038938;28;51636;-46
2022/12/02 06:47:54;;;;;;;;;61.25;44.25;;;;;;;;5038899;28;51359;-45
2022/12/02 06:50:43;;;;;;;;;61.00;45.50;;;;;;;;5039276;28;51110;-45
2022/12/02 06:53:32;;;;;;;;;61.25;48.25;;;;;;;;5052216;28;51287;-44
2022/12/02 06:56:30;;;;;;;;;55.25;43.25;;;;;;;;5039525;28;51110;-46
2022/12/02 06:59:17;;;;;;;;;54.50;43.25;;;;;;;;5039038;28;51098;-46
2022/12/02 07:02:12;;;;;;;;;56.50;45.00;;;;;;;;5039045;28;51701;-49
2022/12/02 07:04:57;;;;;;;;;61.00;46.50;;;;;;;;5038834;28;50955;-48
2022/12/02 07:07:42;;;;;;;;;57.75;45.50;;;;;;;;5039210;28;51152;-48
2022/12/02 07:10:28;;;;;;;;;61.25;47.00;;;;;;;;5038901;28;51469;-46
2022/12/02 07:13:15;;;;;;;;;61.00;46.50;;;;;;;;5039096;28;51197;-45
2022/12/02 07:16:00;;;;;;;;;62.75;47.25;;;;;;;;5038723;28;51057;-47
2022/12/02 07:18:44;;;;;;;;;60.75;47.00;;;;;;;;5038836;28;51116;-47
2022/12/02 07:21:29;;;;;;;;;60.00;46.00;;;;;;;;5042864;28;51216;-47
2022/12/02 07:24:14;;;;;;;;;59.25;44.75;;;;;;;;5042324;28;51050;-44
2022/12/02 07:26:58;;;;;;;;;54.25;42.50;;;;;;;;5042660;28;51505;-45
2022/12/02 07:29:43;;;;;;;;;55.75;43.50;;;;;;;;5042243;28;51161;-47
2022/12/02 07:32:27;;;;;;;;;54.25;44.00;;;;;;;;5042736;28;51083;-49
2022/12/02 07:35:11;;;;;;;;;53.50;43.00;;;;;;;;5043364;28;51224;-50
2022/12/02 07:37:59;;;;;;;;;52.50;39.00;;;;;;;;5042557;28;51050;-51
2022/12/02 07:40:44;;;;;;;;;51.50;40.50;;;;;;;;5042817;28;51095;-51
2022/12/02 07:43:28;;;;;;;;;50.75;41.75;;;;;;;;5042420;28;50996;-51
2022/12/02 07:46:12;;;;;;;;;46.50;38.50;;;;;;;;5043142;28;51165;-53
2022/12/02 07:48:57;;;;;;;;;48.75;37.25;;;;;;;;5042132;28;51503;-51
2022/12/02 07:51:41;;;;;;;;;46.50;37.75;;;;;;;;5042149;28;51669;-50
2022/12/02 07:54:25;;;;;;;;;43.75;35.50;;;;;;;;5042158;28;51185;-52
2022/12/02 07:57:10;;;;;;;;;44.00;35.00;;;;;;;;5042616;28;51238;-50
2022/12/02 07:59:54;;;;;;;;;46.00;36.00;;;;;;;;5042191;28;51196;-54
2022/12/02 08:02:39;;;;;;;;;40.75;34.00;;;;;;;;5042278;28;51151;-51
2022/12/02 08:05:24;;;;;;;;;5.50;5.50;;;;;;;;5042487;28;51095;-51
2022/12/02 08:08:07;;;;;;;;;43.00;35.25;;;;;;;;5041776;28;51303;-55
2022/12/02 08:10:52;;;;;;;;;45.00;32.50;;;;;;;;5042013;28;51118;-52
2022/12/02 08:13:37;;;;;;;;;34.75;29.75;;;;;;;;5042122;28;51175;-56
2022/12/02 08:16:21;;;;;;;;;39.00;31.00;;;;;;;;5042044;28;51124;-53
2022/12/02 08:19:06;;;;;;;;;38.50;33.50;;;;;;;;5041672;28;51198;-52
2022/12/02 08:21:51;;;;;;;;;45.25;36.00;;;;;;;;5042496;28;51065;-50
2022/12/02 08:24:36;;;;;;;;;40.00;32.00;;;;;;;;5041692;28;51640;-55
2022/12/02 08:27:21;;;;;;;;;40.25;32.75;;;;;;;;5041794;28;51194;-50
2022/12/02 08:30:07;;;;;;;;;32.25;27.75;;;;;;;;5041777;28;51592;-55
2022/12/02 08:32:51;;;;;;;;;29.25;25.50;;;;;;;;5040969;28;51048;-55
2022/12/02 08:35:38;;;;;;;;;23.00;20.25;;;;;;;;5041967;28;51101;-56
2022/12/02 08:38:23;;;;;;;;;33.75;30.25;;;;;;;;5041971;28;51489;-53
2022/12/02 08:41:07;;;;;;;;;31.75;28.00;;;;;;;;5041666;28;51087;-56
2022/12/02 08:43:51;;;;;;;;;30.75;26.00;;;;;;;;5041407;28;51140;-56
2022/12/02 08:46:35;;;;;;;;;19.50;18.25;;;;;;;;5040308;28;51256;-57
2022/12/02 08:49:20;;;;;;;;;17.50;15.75;;;;;;;;5039390;28;51172;-55
2022/12/02 08:52:04;;;;;;;;;23.00;21.25;;;;;;;;5039979;28;51138;-52
2022/12/02 08:54:49;;;;;;;;;16.50;15.75;;;;;;;;5041305;28;51196;-54
2022/12/02 08:57:33;;;;;;;;;16.25;12.25;;;;;;;;5040896;28;51147;-56
2022/12/02 09:00:18;;;;;;;;;13.25;12.00;;;;;;;;5041589;28;51205;-57
2022/12/02 09:03:02;;;;;;;;;16.50;14.00;;;;;;;;5033292;28;51180;-52
2022/12/02 09:05:46;;;;;;;;;16.75;16.75;;;;;;;;5040736;28;51477;-53
2022/12/02 09:08:31;;;;;;;;;17.50;14.00;;;;;;;;5040642;28;51128;-54
2022/12/02 09:11:15;;;;;;;;;17.00;16.25;;;;;;;;5041248;28;51105;-53
2022/12/02 09:13:59;;;;;;;;;25.00;17.25;;;;;;;;5040118;28;51169;-54
2022/12/02 09:16:44;;;;;;;;;18.25;17.00;;;;;;;;5040675;28;51358;-53
2022/12/02 09:19:49;;;;;;;;;24.00;20.75;;;;;;;;4997430;28;51420;-54
2022/12/02 09:22:33;;;;;;;;;15.75;13.75;;;;;;;;4983339;28;51174;-55
2022/12/02 09:25:17;;;;;;;;;16.75;16.75;;;;;;;;4998362;28;51193;-56
2022/12/02 09:28:02;;;;;;;;;16.50;15.50;;;;;;;;4998144;28;51586;-55
2022/12/02 09:33:56;;;;;;;;;15.75;15.75;;;;;;;;4997505;28;51114;-55
2022/12/02 09:36:41;;;;;;;;;13.75;13.75;;;;;;;;4997194;28;51154;-56
2022/12/02 09:39:25;;;;;;;;;15.00;14.75;;;;;;;;4998081;28;51006;-54
2022/12/02 09:42:10;;;;;;;;;16.75;15.50;;;;;;;;4997969;28;51121;-54
2022/12/02 09:44:54;;;;;;;;;17.00;15.00;;;;;;;;4997031;28;51254;-52
2022/12/02 09:47:39;;;;;;;;;18.75;15.00;;;;;;;;4997547;28;51116;-54
2022/12/02 09:50:25;;;;;;;;;17.75;14.75;;;;;;;;5015537;28;51086;-55
2022/12/02 09:53:12;;;;;;;;;20.00;16.75;;;;;;;;5040161;28;51007;-54
2022/12/02 09:55:56;;;;;;;;;17.25;15.25;;;;;;;;5040174;28;51519;-54
2022/12/02 09:58:41;;;;;;;;;21.00;16.50;;;;;;;;5040408;28;53124;-51
2022/12/02 10:01:26;;;;;;;;;13.25;13.25;;;;;;;;5039581;28;51107;-53
2022/12/02 10:04:16;;;;;;;;;15.50;13.75;;;;;;;;5038813;28;51379;-54
2022/12/02 10:07:00;;;;;;;;;11.50;11.50;;;;;;;;5039395;28;51183;-55
2022/12/02 10:09:44;;;;;;;;;14.75;14.50;;;;;;;;5040177;28;51127;-53
2022/12/02 10:12:29;;;;;;;;;15.00;12.00;;;;;;;;5030559;28;51156;-53
2022/12/02 10:15:15;;;;;;;;;15.75;14.00;;;;;;;;5039805;28;51261;-55
2022/12/02 10:18:05;;;;;;;;;16.25;14.75;;;;;;;;5040053;28;51100;-56
2022/12/02 10:20:50;;;;;;;;;16.00;14.00;;;;;;;;5039401;28;51579;-52
2022/12/02 10:23:51;;;;;;;;;17.00;15.00;;;;;;;;5039340;28;51144;-51
2022/12/02 10:26:41;;;;;;;;;13.75;13.50;;;;;;;;5039804;28;52077;-54
2022/12/02 10:29:27;;;;;;;;;16.25;15.50;;;;;;;;5039484;28;51404;-51
2022/12/02 10:32:19;;;;;;;;;17.50;15.50;;;;;;;;5039370;28;51172;-55
2022/12/02 10:35:05;;;;;;;;;17.00;17.00;;;;;;;;5039286;28;51408;-55
2022/12/02 10:37:49;;;;;;;;;16.75;15.00;;;;;;;;5039000;28;51101;-51
2022/12/02 10:40:33;;;;;;;;;14.50;12.50;;;;;;;;5039735;28;51086;-53
2022/12/02 10:43:19;;;;;;;;;15.25;12.75;;;;;;;;5039148;28;51159;-55
2022/12/02 10:46:04;;;;;;;;;15.50;13.50;;;;;;;;5039340;28;51442;-51
2022/12/02 10:48:49;;;;;;;;;17.00;15.75;;;;;;;;5039149;28;51109;-54
2022/12/02 10:51:33;;;;;;;;;17.75;13.75;;;;;;;;5039348;28;51473;-55
2022/12/02 10:54:27;;;;;;;;;16.25;15.75;;;;;;;;5038967;28;51078;-52
2022/12/02 10:57:22;;;;;;;;;19.00;16.00;;;;;;;;5043773;28;51150;-51
2022/12/02 11:00:13;;;;;;;;;14.25;14.25;;;;;;;;5043310;28;51649;-53
2022/12/02 11:02:58;;;;;;;;;15.50;14.00;;;;;;;;5039395;28;51160;-52
2022/12/02 11:05:43;;;;;;;;;15.50;14.00;;;;;;;;5043374;28;51009;-50
2022/12/02 11:08:28;;;;;;;;;15.75;14.00;;;;;;;;5043008;28;51062;-52
2022/12/02 11:11:24;;;;;;;;;17.50;14.75;;;;;;;;5043312;28;50960;-51
2022/12/02 11:14:13;;;;;;;;;13.50;12.00;;;;;;;;5042748;28;51300;-53
2022/12/02 11:17:04;;;;;;;;;14.75;14.50;;;;;;;;5043584;28;51129;-54
2022/12/02 11:19:49;;;;;;;;;13.75;13.75;;;;;;;;5043109;28;51491;-54
2022/12/02 11:23:03;;;;;;;;;11.00;10.75;;;;;;;;5042277;28;51126;-54
2022/12/02 11:25:52;;;;;;;;;20.50;18.00;;;;;;;;5043258;28;51190;-51
2022/12/02 11:28:38;;;;;;;;;18.00;15.75;;;;;;;;5042492;28;51069;-51
2022/12/02 11:31:26;;;;;;;;;14.00;14.00;;;;;;;;5042904;28;51504;-51
2022/12/02 11:34:23;;;;;;;;;20.00;16.25;;;;;;;;5042619;28;51098;-51
2022/12/02 11:37:44;;;;;;;;;8.75;8.75;;;;;;;;5043010;28;51012;-52
2022/12/02 11:40:31;;;;;;;;;13.25;13.25;;;;;;;;5000374;28;51134;-50
2022/12/02 11:43:34;;;;;;;;;17.00;13.00;;;;;;;;5041811;28;51045;-50
2022/12/02 11:46:20;;;;;;;;;14.00;12.75;;;;;;;;5042933;28;51514;-52
2022/12/02 11:49:17;;;;;;;;;15.00;12.50;;;;;;;;5041423;28;51150;-54
2022/12/02 11:52:21;;;;;;;;;14.00;11.75;;;;;;;;5039588;28;51110;-52
2022/12/02 11:55:14;;;;;;;;;13.50;13.00;;;;;;;;5040886;28;51107;-51
2022/12/02 11:57:58;;;;;;;;;15.00;14.00;;;;;;;;5042847;28;51268;-51
2022/12/02 12:00:58;;;;;;;;;14.75;11.75;;;;;;;;5042686;28;51851;-55
2022/12/02 12:03:44;;;;;;;;;12.00;11.00;;;;;;;;5041357;28;51190;-54
2022/12/02 12:06:34;;;;;;;;;10.25;9.75;;;;;;;;5040966;28;51205;-56
2022/12/02 12:09:18;;;;;;;;;11.00;9.00;;;;;;;;5042509;28;51077;-54
2022/12/02 12:12:07;;;;;;;;;11.75;10.00;;;;;;;;5042255;28;51440;-54
2022/12/02 12:15:05;;;;;;;;;10.75;10.75;;;;;;;;5042562;28;51116;-52
2022/12/02 12:17:50;;;;;;;;;11.50;10.25;;;;;;;;5042496;28;51143;-56
2022/12/02 12:20:34;;;;;;;;;10.00;10.00;;;;;;;;5042075;28;51052;-55
2022/12/02 12:23:29;;;;;;;;;14.00;13.00;;;;;;;;5042200;28;51014;-53
2022/12/02 12:26:32;;;;;;;;;13.75;11.75;;;;;;;;5042118;28;51126;-51
2022/12/02 12:29:17;;;;;;;;;12.75;10.25;;;;;;;;5037239;28;51587;-53
2022/12/02 12:32:02;;;;;;;;;9.75;9.50;;;;;;;;5042122;28;51088;-52
2022/12/02 12:34:46;;;;;;;;;6.50;6.50;;;;;;;;5042110;28;51041;-53
2022/12/02 12:37:31;;;;;;;;;13.75;12.00;;;;;;;;5041691;28;51188;-52
2022/12/02 12:40:15;;;;;;;;;13.00;9.50;;;;;;;;5041810;28;51023;-50
2022/12/02 12:43:00;;;;;;;;;13.00;10.25;;;;;;;;5041544;28;51161;-53
2022/12/02 12:45:44;;;;;;;;;14.00;11.50;;;;;;;;5041586;28;51129;-55
2022/12/02 12:48:29;;;;;;;;;13.50;12.25;;;;;;;;5054998;28;51106;-53
2022/12/02 12:51:13;;;;;;;;;17.25;10.50;;;;;;;;5037168;28;51011;-54
2022/12/02 12:53:58;;;;;;;;;13.25;10.75;;;;;;;;5036373;28;51166;-52
2022/12/02 12:56:42;;;;;;;;;12.75;11.00;;;;;;;;5041432;28;51237;-51
2022/12/02 12:59:27;;;;;;;;;11.00;8.25;;;;;;;;5034494;28;51113;-52
2022/12/02 13:02:14;;;;;;;;;13.00;10.25;;;;;;;;5041070;28;51041;-54
2022/12/02 13:04:58;;;;;;;;;11.50;8.00;;;;;;;;5038480;28;51230;-55
2022/12/02 13:07:48;;;;;;;;;14.00;11.25;;;;;;;;5041661;28;51150;-52
2022/12/02 13:10:32;;;;;;;;;8.50;8.25;;;;;;;;5041200;28;51118;-53
2022/12/02 13:13:17;;;;;;;;;9.25;9.25;;;;;;;;5041522;28;50998;-53
2022/12/02 13:16:02;;;;;;;;;12.50;10.50;;;;;;;;5040597;28;51230;-50
2022/12/02 13:18:49;;;;;;;;;12.25;9.50;;;;;;;;5041156;28;51090;-53
2022/12/02 13:21:36;;;;;;;;;13.50;10.25;;;;;;;;5041178;28;51185;-53
2022/12/02 13:24:21;;;;;;;;;15.00;11.25;;;;;;;;5041233;28;51152;-52
2022/12/02 13:27:05;;;;;;;;;13.00;10.25;;;;;;;;5041026;28;51329;-51
2022/12/02 13:29:56;;;;;;;;;11.50;7.75;;;;;;;;5040829;28;51136;-52
2022/12/02 13:32:40;;;;;;;;;7.50;7.50;;;;;;;;5054785;28;51737;-53
2022/12/02 13:35:24;;;;;;;;;13.00;12.00;;;;;;;;5040848;28;51121;-56
2022/12/02 13:38:09;;;;;;;;;10.00;10.00;;;;;;;;5036866;28;51100;-54
2022/12/02 13:40:53;;;;;;;;;10.75;9.00;;;;;;;;5040885;28;51077;-55
2022/12/02 13:43:38;;;;;;;;;12.00;9.00;;;;;;;;5040898;28;51086;-54
2022/12/02 13:46:23;;;;;;;;;11.75;11.75;;;;;;;;5040312;28;51118;-52
2022/12/02 13:49:10;;;;;;;;;12.00;11.50;;;;;;;;5041096;28;51035;-53
2022/12/02 13:51:56;;;;;;;;;13.25;11.50;;;;;;;;5040112;28;51146;-51
2022/12/02 13:54:40;;;;;;;;;10.00;10.00;;;;;;;;5040513;28;51082;-56
2022/12/02 13:57:24;;;;;;;;;14.00;10.75;;;;;;;;5040224;28;51119;-54
2022/12/02 14:00:09;;;;;;;;;10.50;8.75;;;;;;;;5040585;28;51059;-53
2022/12/02 14:02:54;;;;;;;;;10.00;8.25;;;;;;;;5039978;28;51160;-49
2022/12/02 14:05:38;;;;;;;;;16.00;10.75;;;;;;;;5039898;28;51125;-55
2022/12/02 14:08:23;;;;;;;;;14.25;10.25;;;;;;;;5039980;28;51343;-54
2022/12/02 14:11:07;;;;;;;;;9.00;7.75;;;;;;;;5040090;28;51160;-53
2022/12/02 14:13:52;;;;;;;;;8.75;8.50;;;;;;;;5040528;28;50952;-54
2022/12/02 14:16:50;;;;;;;;;8.25;6.75;;;;;;;;4997839;28;51234;-54
2022/12/02 14:19:34;;;;;;;;;11.25;10.50;;;;;;;;4997890;28;51132;-54
2022/12/02 14:22:18;;;;;;;;;10.50;9.25;;;;;;;;4998243;28;51387;-54
2022/12/02 14:25:02;;;;;;;;;12.50;9.50;;;;;;;;4998084;28;51155;-55
2022/12/02 14:27:46;;;;;;;;;9.00;9.00;;;;;;;;4997881;28;51399;-53
2022/12/02 14:30:31;;;;;;;;;12.75;10.50;;;;;;;;4997213;28;51029;-51
2022/12/02 14:33:15;;;;;;;;;9.50;8.25;;;;;;;;4998128;28;51115;-53
2022/12/02 14:35:59;;;;;;;;;13.25;10.50;;;;;;;;4997780;28;51146;-51
2022/12/02 14:38:43;;;;;;;;;10.75;9.75;;;;;;;;4998094;28;51078;-53
2022/12/02 14:41:27;;;;;;;;;10.75;9.50;;;;;;;;4997485;28;51137;-53
2022/12/02 14:44:11;;;;;;;;;11.50;11.00;;;;;;;;4997537;28;51772;-53
2022/12/02 14:46:56;;;;;;;;;12.00;10.25;;;;;;;;4997755;28;51198;-54
2022/12/02 14:49:40;;;;;;;;;14.50;12.50;;;;;;;;4998182;28;51038;-53
2022/12/02 14:52:24;;;;;;;;;16.25;11.75;;;;;;;;5016841;28;51532;-51
2022/12/02 14:55:08;;;;;;;;;13.25;11.00;;;;;;;;5039667;28;51373;-51
2022/12/02 14:57:53;;;;;;;;;8.75;8.00;;;;;;;;5039444;28;51476;-54
2022/12/02 15:00:37;;;;;;;;;12.25;10.50;;;;;;;;5052268;28;51129;-55
2022/12/02 15:03:21;;;;;;;;;10.00;10.00;;;;;;;;5039874;28;51172;-55
2022/12/02 15:06:06;;;;;;;;;13.50;10.75;;;;;;;;5039514;28;51565;-53
2022/12/02 15:08:51;;;;;;;;;11.50;11.50;;;;;;;;5039136;28;51090;-54
2022/12/02 15:11:35;;;;;;;;;11.50;8.75;;;;;;;;5039776;28;51493;-54
2022/12/02 15:14:19;;;;;;;;;12.25;11.25;;;;;;;;5038306;28;51480;-55
2022/12/02 15:17:03;;;;;;;;;15.50;12.50;;;;;;;;5039489;28;51075;-51
2022/12/02 15:19:48;;;;;;;;;12.75;12.75;;;;;;;;5039461;28;51042;-51
2022/12/02 15:22:32;;;;;;;;;16.50;11.75;;;;;;;;5039624;28;51388;-52
2022/12/02 15:25:17;;;;;;;;;11.25;11.25;;;;;;;;5039210;28;51165;-52
2022/12/02 15:28:01;;;;;;;;;12.75;12.25;;;;;;;;5039427;28;50506;-51
2022/12/02 15:30:46;;;;;;;;;13.00;12.00;;;;;;;;5039054;28;51164;-53
2022/12/02 15:33:30;;;;;;;;;11.50;10.25;;;;;;;;5039419;28;51180;-49
2022/12/02 15:36:15;;;;;;;;;14.00;11.50;;;;;;;;5039441;28;51415;-54
2022/12/02 15:38:59;;;;;;;;;11.00;9.75;;;;;;;;5039022;28;51042;-54
2022/12/02 15:41:44;;;;;;;;;13.50;10.50;;;;;;;;5041603;28;51708;-54
2022/12/02 15:44:28;;;;;;;;;16.00;15.25;;;;;;;;5042765;28;51519;-53
2022/12/02 15:47:12;;;;;;;;;18.00;13.00;;;;;;;;5043354;28;51447;-51
2022/12/02 15:50:00;;;;;;;;;12.75;12.25;;;;;;;;5042570;28;51298;-55
2022/12/02 15:52:44;;;;;;;;;16.50;13.75;;;;;;;;5042979;28;51105;-54
2022/12/02 15:55:28;;;;;;;;;11.25;10.00;;;;;;;;5042341;28;51494;-56
2022/12/02 15:58:13;;;;;;;;;13.25;11.75;;;;;;;;5042695;28;51396;-50
2022/12/02 16:00:57;;;;;;;;;13.75;12.25;;;;;;;;5042488;28;51098;-52
2022/12/02 16:03:43;;;;;;;;;13.25;10.50;;;;;;;;5042880;28;51038;-51
2022/12/02 16:06:27;;;;;;;;;12.25;11.25;;;;;;;;5042697;28;51585;-55
2022/12/02 16:09:12;;;;;;;;;14.00;11.00;;;;;;;;5042431;28;51617;-57
2022/12/02 16:11:56;;;;;;;;;11.25;10.00;;;;;;;;5042538;28;51191;-54
2022/12/02 16:14:43;;;;;;;;;10.00;10.00;;;;;;;;5042402;28;51042;-54